Time;durP1;ratioP1;P1;durP2;ratioP2;P2;SDS_P1;SDS_P2;PMS_P1;PMS_P2;Temp;Humidity;BMP_temperature;BMP_pressure;BME280_temperature;BME280_humidity;BME280_pressure;Samples;Min_cycle;Max_cycle;Signal;HPM_P1;HPM_P2
2021/01/21 00:02:03;;;;;;;52.20;23.03;;;1.20;99.90;;;;;;4335632;33;20518;-75
2021/01/21 00:04:30;;;;;;;50.93;22.03;;;1.10;99.90;;;;;;4336289;33;20171;-74
2021/01/21 00:06:57;;;;;;;46.90;22.20;;;1.10;99.90;;;;;;4335208;33;20171;-74
2021/01/21 00:09:24;;;;;;;47.10;21.80;;;1.00;99.90;;;;;;4335381;33;20196;-76
2021/01/21 00:11:50;;;;;;;51.33;23.23;;;1.00;99.90;;;;;;4335720;33;20141;-75
2021/01/21 00:14:17;;;;;;;42.37;20.63;;;1.00;99.90;;;;;;4334794;33;20208;-74
2021/01/21 00:16:44;;;;;;;44.70;19.03;;;0.90;99.90;;;;;;4336073;33;20227;-75
2021/01/21 00:19:11;;;;;;;44.23;19.83;;;0.90;99.90;;;;;;4338792;33;20378;-74
2021/01/21 00:21:38;;;;;;;41.00;18.80;;;1.00;99.90;;;;;;4349866;33;20145;-75
2021/01/21 00:24:05;;;;;;;40.73;18.10;;;1.00;99.90;;;;;;4349293;33;20149;-75
2021/01/21 00:26:33;;;;;;;43.37;20.03;;;1.00;99.90;;;;;;4349953;33;20226;-75
2021/01/21 00:29:00;;;;;;;41.53;18.37;;;1.00;99.90;;;;;;4350434;32;20140;-75
2021/01/21 00:31:30;;;;;;;42.10;17.30;;;1.10;99.90;;;;;;4349864;33;20171;-72
2021/01/21 00:33:58;;;;;;;40.43;17.30;;;1.10;99.90;;;;;;4349977;33;20168;-72
2021/01/21 00:36:25;;;;;;;40.43;18.73;;;1.10;99.90;;;;;;4350198;33;20168;-74
2021/01/21 00:38:52;;;;;;;43.17;17.97;;;1.10;99.90;;;;;;4349734;33;20194;-73
2021/01/21 00:41:19;;;;;;;40.57;18.10;;;1.20;99.90;;;;;;4349410;33;20145;-72
2021/01/21 00:43:46;;;;;;;40.93;18.40;;;1.20;99.90;;;;;;4349643;33;20183;-74
2021/01/21 00:46:13;;;;;;;41.80;19.40;;;1.20;99.90;;;;;;4349127;33;20199;-73
2021/01/21 00:48:45;;;;;;;40.67;18.57;;;1.20;99.90;;;;;;4349246;33;20410;-73
2021/01/21 00:51:12;;;;;;;38.67;18.57;;;1.20;99.90;;;;;;4349130;33;20191;-76
2021/01/21 00:53:39;;;;;;;40.73;18.30;;;1.20;99.90;;;;;;4350496;33;20132;-81
2021/01/21 00:56:08;;;;;;;41.73;19.20;;;1.20;99.90;;;;;;4349716;33;20148;-74
2021/01/21 00:58:36;;;;;;;39.27;18.63;;;1.20;99.90;;;;;;4349386;33;20169;-76
2021/01/21 01:01:03;;;;;;;45.83;18.83;;;1.20;99.90;;;;;;4349502;33;20430;-75
2021/01/21 01:03:30;;;;;;;38.30;18.50;;;1.20;99.90;;;;;;4350013;33;20167;-75
2021/01/21 01:05:57;;;;;;;42.23;19.10;;;1.20;99.90;;;;;;4349452;33;20420;-74
2021/01/21 01:08:24;;;;;;;44.47;19.23;;;1.10;99.90;;;;;;4349996;33;20537;-75
2021/01/21 01:10:51;;;;;;;45.73;19.97;;;1.10;99.90;;;;;;4349404;33;20471;-74
2021/01/21 01:13:18;;;;;;;44.43;19.77;;;1.10;99.90;;;;;;4348868;33;20226;-75
2021/01/21 01:15:45;;;;;;;45.33;19.93;;;1.10;99.90;;;;;;4349403;33;20191;-72
2021/01/21 01:18:12;;;;;;;41.93;19.70;;;1.10;99.90;;;;;;4348861;33;20186;-72
2021/01/21 01:20:39;;;;;;;45.40;19.80;;;1.10;99.90;;;;;;4348770;33;20168;-72
2021/01/21 01:23:06;;;;;;;46.63;20.43;;;1.10;99.90;;;;;;4349936;33;20149;-72
2021/01/21 01:25:35;;;;;;;43.40;19.93;;;1.10;99.90;;;;;;4349308;33;20203;-71
2021/01/21 01:28:02;;;;;;;41.87;19.87;;;1.10;99.90;;;;;;4348719;33;20149;-72
2021/01/21 01:30:29;;;;;;;43.20;20.20;;;1.10;99.90;;;;;;4349003;33;20144;-71
2021/01/21 01:32:56;;;;;;;43.50;20.70;;;1.00;99.90;;;;;;4348757;33;20208;-71
2021/01/21 01:35:23;;;;;;;42.07;20.17;;;1.10;99.90;;;;;;4349316;33;20579;-70
2021/01/21 01:37:50;;;;;;;45.63;19.83;;;1.10;99.90;;;;;;4348565;33;20148;-72
2021/01/21 01:40:16;;;;;;;44.07;21.43;;;1.20;99.90;;;;;;4350678;33;20199;-71
2021/01/21 01:42:44;;;;;;;48.53;21.53;;;1.20;99.90;;;;;;4348830;33;20172;-70
2021/01/21 01:45:12;;;;;;;45.20;20.30;;;1.20;99.90;;;;;;4349130;33;20198;-72
2021/01/21 01:47:42;;;;;;;43.30;20.90;;;1.10;99.90;;;;;;4348156;33;20164;-72
2021/01/21 01:50:11;;;;;;;49.10;21.10;;;1.10;99.90;;;;;;4349829;33;20164;-71
2021/01/21 01:52:41;;;;;;;45.27;21.07;;;1.10;99.90;;;;;;4348753;33;20140;-73
2021/01/21 01:55:15;;;;;;;46.00;20.57;;;1.10;99.90;;;;;;4349133;33;20160;-71
2021/01/21 01:57:47;;;;;;;48.53;21.37;;;1.10;99.90;;;;;;4349011;33;20190;-71
2021/01/21 02:00:14;;;;;;;45.73;21.57;;;1.10;99.90;;;;;;4349874;33;20405;-72
2021/01/21 02:02:41;;;;;;;45.93;20.90;;;1.10;99.90;;;;;;4349031;33;20192;-72
2021/01/21 02:05:09;;;;;;;44.83;20.53;;;1.00;99.90;;;;;;4349027;33;20144;-73
2021/01/21 02:07:36;;;;;;;46.73;21.03;;;1.10;99.90;;;;;;4348567;33;20140;-72
2021/01/21 02:10:03;;;;;;;51.50;21.17;;;1.10;99.90;;;;;;4349534;33;20179;-72
2021/01/21 02:12:47;;;;;;;46.47;20.63;;;1.10;99.90;;;;;;4349222;33;20532;-72
2021/01/21 02:15:42;;;;;;;46.10;20.57;;;1.10;99.90;;;;;;4349315;33;20219;-73
2021/01/21 02:18:27;;;;;;;47.03;21.93;;;1.00;99.90;;;;;;4349057;33;20202;-73
2021/01/21 02:21:29;;;;;;;46.27;21.07;;;1.10;99.90;;;;;;4349235;33;20438;-73
2021/01/21 02:24:23;;;;;;;46.40;20.90;;;1.10;99.90;;;;;;4349651;33;20182;-73
2021/01/21 02:26:54;;;;;;;48.93;20.87;;;1.10;99.90;;;;;;4348788;33;20155;-74
2021/01/21 02:29:22;;;;;;;48.23;21.17;;;1.00;99.90;;;;;;4347006;33;20187;-74
2021/01/21 02:32:07;;;;;;;49.27;21.70;;;1.00;99.90;;;;;;4349371;33;20191;-74
2021/01/21 02:34:40;;;;;;;45.90;20.73;;;1.10;99.90;;;;;;4348958;33;20232;-74
2021/01/21 02:37:32;;;;;;;46.07;20.97;;;1.10;99.90;;;;;;4348400;33;20148;-74
2021/01/21 02:40:01;;;;;;;46.20;20.90;;;1.00;99.90;;;;;;4349402;33;20160;-74
2021/01/21 02:42:29;;;;;;;47.13;20.57;;;1.00;99.90;;;;;;4349528;33;20182;-74
2021/01/21 02:44:55;;;;;;;47.63;20.97;;;0.90;99.90;;;;;;4351444;33;20494;-72
2021/01/21 02:47:26;;;;;;;45.77;20.17;;;1.00;99.90;;;;;;4351307;33;20257;-73
2021/01/21 02:49:53;;;;;;;51.23;21.70;;;1.00;99.90;;;;;;4350872;33;20517;-76
2021/01/21 02:52:37;;;;;;;48.70;20.00;;;1.00;99.90;;;;;;4351371;33;20168;-77
2021/01/21 02:55:18;;;;;;;43.93;20.60;;;1.00;99.90;;;;;;4351333;33;20219;-76
2021/01/21 02:57:57;;;;;;;45.70;20.07;;;0.90;99.90;;;;;;4351110;33;20148;-76
2021/01/21 03:00:24;;;;;;;46.70;20.63;;;0.90;99.90;;;;;;4351985;33;20230;-77
2021/01/21 03:02:58;;;;;;;44.47;20.37;;;0.90;99.90;;;;;;4350707;33;20148;-77
2021/01/21 03:05:28;;;;;;;46.97;20.37;;;0.90;99.90;;;;;;4351360;33;20170;-76
2021/01/21 03:07:55;;;;;;;43.80;20.07;;;0.90;99.90;;;;;;4351989;33;20175;-77
2021/01/21 03:10:23;;;;;;;47.30;21.07;;;1.00;99.90;;;;;;4351358;33;20144;-77
2021/01/21 03:12:55;;;;;;;48.00;21.23;;;0.90;99.90;;;;;;4351123;33;20137;-77
2021/01/21 03:15:22;;;;;;;43.30;19.87;;;0.90;99.90;;;;;;4350610;33;20146;-77
2021/01/21 03:17:50;;;;;;;46.13;20.13;;;0.90;99.90;;;;;;4350449;33;20186;-77
2021/01/21 03:20:17;;;;;;;44.57;20.60;;;0.80;99.90;;;;;;4350865;33;20187;-77
2021/01/21 03:22:45;;;;;;;44.87;20.53;;;0.90;99.90;;;;;;4350475;33;20199;-77
2021/01/21 03:25:12;;;;;;;44.17;19.97;;;0.80;99.90;;;;;;4350262;33;20199;-77
2021/01/21 03:27:40;;;;;;;43.87;20.70;;;0.80;99.90;;;;;;4350589;33;20144;-77
2021/01/21 03:30:08;;;;;;;41.33;19.93;;;0.80;99.90;;;;;;4350324;33;20206;-77
2021/01/21 03:32:35;;;;;;;46.27;20.43;;;0.70;99.90;;;;;;4350305;33;20164;-77
2021/01/21 03:35:07;;;;;;;44.87;20.10;;;0.70;99.90;;;;;;4350331;33;20183;-77
2021/01/21 03:37:34;;;;;;;45.60;20.27;;;0.70;99.90;;;;;;4351083;33;20176;-76
2021/01/21 03:40:01;;;;;;;46.17;20.50;;;0.70;99.90;;;;;;4350631;33;20163;-77
2021/01/21 03:42:28;;;;;;;43.70;20.07;;;0.70;99.90;;;;;;4350377;33;20148;-76
2021/01/21 03:44:55;;;;;;;48.50;20.73;;;0.70;99.90;;;;;;4351152;33;20153;-76
2021/01/21 03:47:22;;;;;;;43.13;20.10;;;0.70;99.90;;;;;;4350440;33;20167;-76
2021/01/21 03:49:49;;;;;;;42.47;19.33;;;0.60;99.90;;;;;;4350062;33;20175;-76
2021/01/21 03:52:16;;;;;;;43.57;19.53;;;0.60;99.90;;;;;;4349957;33;20418;-76
2021/01/21 03:54:43;;;;;;;43.47;19.27;;;0.60;99.90;;;;;;4350071;33;20180;-77
2021/01/21 03:57:10;;;;;;;42.57;18.73;;;0.70;99.90;;;;;;4350071;33;20558;-77
2021/01/21 03:59:37;;;;;;;42.23;19.17;;;0.70;99.90;;;;;;4349944;33;20148;-78
2021/01/21 04:02:04;;;;;;;42.90;19.53;;;0.70;99.90;;;;;;4350001;33;20194;-77
2021/01/21 04:04:32;;;;;;;42.47;19.53;;;0.70;99.90;;;;;;4350162;33;20208;-77
2021/01/21 04:06:59;;;;;;;46.37;20.07;;;0.70;99.90;;;;;;4350268;33;20199;-78
2021/01/21 04:09:28;;;;;;;43.50;19.23;;;0.70;99.90;;;;;;4350121;33;20413;-77
2021/01/21 04:11:55;;;;;;;42.40;18.73;;;0.70;99.90;;;;;;4350295;33;20460;-75
2021/01/21 04:14:22;;;;;;;40.70;18.77;;;0.70;99.90;;;;;;4336218;33;20191;-77
2021/01/21 04:16:49;;;;;;;40.60;19.07;;;0.70;99.90;;;;;;4350303;33;20174;-76
2021/01/21 04:19:19;;;;;;;42.23;18.90;;;0.70;99.90;;;;;;4349981;33;20247;-76
2021/01/21 04:21:46;;;;;;;42.23;18.97;;;0.80;99.90;;;;;;4350156;33;20203;-76
2021/01/21 04:24:13;;;;;;;44.30;19.00;;;0.70;99.90;;;;;;4350159;33;20230;-76
2021/01/21 04:26:40;;;;;;;37.70;17.50;;;0.70;99.90;;;;;;4349918;33;20429;-76
2021/01/21 04:29:07;;;;;;;41.53;17.97;;;0.70;99.90;;;;;;4349488;33;20155;-77
2021/01/21 04:31:34;;;;;;;39.83;18.90;;;0.70;99.90;;;;;;4349120;33;20580;-76
2021/01/21 04:34:01;;;;;;;38.70;18.07;;;0.70;99.90;;;;;;4348755;33;20208;-76
2021/01/21 04:36:28;;;;;;;41.97;18.43;;;0.70;99.90;;;;;;4349519;33;20156;-76
2021/01/21 04:38:55;;;;;;;40.93;18.57;;;0.70;99.90;;;;;;4349915;33;20466;-76
2021/01/21 04:41:23;;;;;;;40.80;17.57;;;0.70;99.90;;;;;;4350063;33;20203;-76
2021/01/21 04:43:50;;;;;;;39.07;18.17;;;0.60;99.90;;;;;;4349382;33;20140;-76
2021/01/21 04:46:16;;;;;;;40.07;18.07;;;0.70;99.90;;;;;;4350077;33;20205;-76
2021/01/21 04:48:45;;;;;;;36.77;17.70;;;0.70;99.90;;;;;;4349274;33;20176;-75
2021/01/21 04:51:14;;;;;;;38.43;17.23;;;0.70;99.90;;;;;;4349217;33;20141;-75
2021/01/21 04:53:46;;;;;;;39.63;18.17;;;0.70;99.90;;;;;;4349177;33;20422;-75
2021/01/21 04:56:24;;;;;;;39.87;17.57;;;0.70;99.90;;;;;;4349231;33;20176;-75
2021/01/21 04:58:55;;;;;;;39.37;18.57;;;0.70;99.90;;;;;;4349562;33;20202;-75
2021/01/21 05:01:22;;;;;;;40.40;18.30;;;0.70;99.90;;;;;;4349050;33;20174;-75
2021/01/21 05:03:50;;;;;;;38.47;18.33;;;0.80;99.90;;;;;;4349552;33;20393;-75
2021/01/21 05:06:18;;;;;;;38.27;18.23;;;0.70;99.90;;;;;;4349415;33;20441;-75
2021/01/21 05:08:46;;;;;;;38.67;18.27;;;0.70;99.90;;;;;;4348859;33;20161;-75
2021/01/21 05:11:13;;;;;;;38.10;17.23;;;0.80;99.90;;;;;;4349423;33;20227;-75
2021/01/21 05:13:39;;;;;;;38.30;18.07;;;0.70;99.90;;;;;;4349524;33;20160;-75
2021/01/21 05:16:06;;;;;;;40.53;18.13;;;0.80;99.90;;;;;;4349067;33;20156;-75
2021/01/21 05:18:36;;;;;;;37.10;17.33;;;0.80;99.90;;;;;;4349330;33;20199;-75
2021/01/21 05:21:07;;;;;;;39.40;17.77;;;0.80;99.90;;;;;;4349890;33;20203;-76
2021/01/21 05:23:33;;;;;;;37.07;17.77;;;0.90;99.90;;;;;;4349961;33;20196;-75
2021/01/21 05:26:01;;;;;;;35.13;16.67;;;0.90;99.90;;;;;;4349276;33;20203;-75
2021/01/21 05:28:29;;;;;;;39.20;17.23;;;0.90;99.90;;;;;;4349055;33;20174;-75
2021/01/21 05:31:00;;;;;;;39.30;18.47;;;0.90;99.90;;;;;;4348808;33;20149;-75
2021/01/21 05:33:29;;;;;;;37.07;16.77;;;0.90;99.90;;;;;;4349008;33;20196;-75
2021/01/21 05:35:57;;;;;;;36.43;16.70;;;1.00;99.90;;;;;;4349199;33;20164;-75
2021/01/21 05:38:24;;;;;;;40.00;17.87;;;0.90;99.90;;;;;;4348818;33;20137;-75
2021/01/21 05:40:51;;;;;;;38.77;17.63;;;0.90;99.90;;;;;;4348946;33;20164;-75
2021/01/21 05:43:18;;;;;;;36.87;17.97;;;0.90;99.90;;;;;;4349165;33;20152;-74
2021/01/21 05:45:45;;;;;;;35.33;17.47;;;0.90;99.90;;;;;;4349296;33;20180;-74
2021/01/21 05:48:15;;;;;;;34.37;17.07;;;1.00;99.90;;;;;;4349260;33;20200;-75
2021/01/21 05:50:42;;;;;;;35.53;17.27;;;1.10;99.90;;;;;;4349076;33;20168;-75
2021/01/21 05:53:10;;;;;;;36.50;17.43;;;1.10;99.90;;;;;;4348194;33;20219;-75
2021/01/21 05:55:38;;;;;;;34.67;16.77;;;1.10;99.90;;;;;;4348755;33;20150;-74
2021/01/21 05:58:06;;;;;;;39.20;17.37;;;1.10;99.90;;;;;;4349183;33;20216;-74
2021/01/21 06:00:34;;;;;;;37.67;16.80;;;1.00;99.90;;;;;;4348557;33;20195;-75
2021/01/21 06:03:01;;;;;;;35.83;17.03;;;1.00;99.90;;;;;;4348506;33;20157;-74
2021/01/21 06:05:28;;;;;;;35.13;17.03;;;1.00;99.90;;;;;;4348980;33;20389;-75
2021/01/21 06:07:55;;;;;;;38.10;17.47;;;1.10;99.90;;;;;;4349115;33;20144;-75
2021/01/21 06:10:22;;;;;;;38.37;17.93;;;1.10;99.90;;;;;;4349577;33;20424;-75
2021/01/21 06:12:51;;;;;;;39.23;16.87;;;1.10;99.90;;;;;;4349054;33;20208;-75
2021/01/21 06:15:19;;;;;;;32.23;17.40;;;1.10;99.90;;;;;;4348988;33;20148;-75
2021/01/21 06:17:48;;;;;;;37.77;16.87;;;1.00;99.90;;;;;;4350645;33;20144;-75
2021/01/21 06:20:16;;;;;;;34.83;17.10;;;1.00;99.90;;;;;;4351865;33;20161;-75
2021/01/21 06:22:44;;;;;;;33.53;17.27;;;1.00;99.90;;;;;;4351792;33;20187;-75
2021/01/21 06:25:14;;;;;;;37.40;16.43;;;1.00;99.90;;;;;;4352230;33;20159;-76
2021/01/21 06:27:43;;;;;;;36.07;16.90;;;1.00;99.90;;;;;;4351118;33;20175;-77
2021/01/21 06:30:28;;;;;;;35.60;16.67;;;1.10;99.90;;;;;;4351660;33;20203;-75
2021/01/21 06:33:05;;;;;;;35.60;17.23;;;1.10;99.90;;;;;;4351670;33;20137;-76
2021/01/21 06:35:33;;;;;;;36.90;16.40;;;1.00;99.90;;;;;;4351397;33;20170;-77
2021/01/21 06:38:09;;;;;;;36.07;16.73;;;1.00;99.90;;;;;;4351806;33;20164;-76
2021/01/21 06:40:37;;;;;;;37.07;17.00;;;1.00;99.90;;;;;;4352661;33;20148;-76
2021/01/21 06:43:24;;;;;;;36.27;16.23;;;1.10;99.90;;;;;;4351050;33;20184;-76
2021/01/21 06:45:56;;;;;;;35.13;16.30;;;1.10;99.90;;;;;;4352096;33;20175;-76
2021/01/21 06:48:24;;;;;;;36.07;16.33;;;1.00;99.90;;;;;;4352388;33;20159;-76
2021/01/21 06:50:52;;;;;;;37.87;17.37;;;1.10;99.90;;;;;;4351148;33;20204;-75
2021/01/21 06:53:19;;;;;;;34.10;15.93;;;1.20;99.90;;;;;;4351423;33;20411;-75
2021/01/21 06:55:48;;;;;;;38.23;17.90;;;1.20;99.90;;;;;;4351419;33;20429;-76
2021/01/21 06:58:47;;;;;;;34.50;16.50;;;1.20;99.90;;;;;;4351535;33;20174;-74
2021/01/21 07:01:32;;;;;;;36.07;17.47;;;1.30;99.90;;;;;;4351217;33;20159;-75
2021/01/21 07:04:18;;;;;;;38.63;17.53;;;1.30;99.90;;;;;;4351617;33;20156;-76
2021/01/21 07:06:58;;;;;;;35.87;17.27;;;1.40;99.90;;;;;;4350659;33;20433;-76
2021/01/21 07:09:26;;;;;;;36.17;16.70;;;1.50;99.90;;;;;;4351530;33;20136;-77
2021/01/21 07:11:57;;;;;;;38.33;17.47;;;1.60;99.90;;;;;;4351073;33;20140;-77
2021/01/21 07:14:30;;;;;;;36.23;17.23;;;1.50;99.90;;;;;;4350643;33;20199;-76
2021/01/21 07:17:04;;;;;;;36.43;17.37;;;1.60;99.90;;;;;;4351099;33;20251;-76
2021/01/21 07:19:39;;;;;;;37.53;18.40;;;1.60;99.90;;;;;;4350674;33;20216;-76
2021/01/21 07:22:32;;;;;;;36.83;17.43;;;1.70;99.90;;;;;;4351030;33;20144;-76
2021/01/21 07:25:16;;;;;;;38.40;17.83;;;1.60;99.90;;;;;;4351765;33;20148;-76
2021/01/21 07:27:44;;;;;;;35.67;17.93;;;1.70;99.90;;;;;;4350452;33;20156;-75
2021/01/21 07:30:23;;;;;;;35.63;17.77;;;1.70;99.90;;;;;;4350362;33;20191;-76
2021/01/21 07:33:26;;;;;;;35.83;17.90;;;1.70;99.90;;;;;;4350804;33;20214;-75
2021/01/21 07:35:53;;;;;;;38.43;17.80;;;1.70;99.90;;;;;;4351193;33;20187;-76
2021/01/21 07:38:41;;;;;;;39.00;17.10;;;1.70;99.90;;;;;;4351024;33;20163;-76
2021/01/21 07:41:10;;;;;;;34.47;17.53;;;1.80;99.90;;;;;;4339059;33;20156;-76
2021/01/21 07:43:57;;;;;;;34.50;16.60;;;1.80;99.90;;;;;;4351151;33;20172;-76
2021/01/21 07:46:25;;;;;;;37.70;17.30;;;1.90;99.90;;;;;;4351800;33;20561;-77
2021/01/21 07:49:24;;;;;;;33.90;17.30;;;2.00;99.90;;;;;;4350526;33;20235;-78
2021/01/21 07:52:05;;;;;;;34.20;16.50;;;2.10;99.90;;;;;;4350555;33;20195;-77
2021/01/21 07:54:52;;;;;;;34.20;16.70;;;2.30;99.90;;;;;;4349811;33;20190;-77
2021/01/21 07:57:22;;;;;;;32.93;15.73;;;2.40;99.90;;;;;;4351800;33;20460;-78
2021/01/21 07:59:59;;;;;;;36.70;17.13;;;2.40;99.90;;;;;;4349588;33;20144;-77
2021/01/21 08:02:50;;;;;;;35.10;16.83;;;2.50;99.90;;;;;;4350518;33;20163;-76
2021/01/21 08:05:19;;;;;;;34.73;17.23;;;2.70;99.90;;;;;;4350838;33;20160;-77
2021/01/21 08:07:50;;;;;;;34.93;17.30;;;2.80;99.90;;;;;;4350124;33;20219;-76
2021/01/21 08:10:24;;;;;;;33.83;17.13;;;2.90;99.90;;;;;;4350286;33;20166;-77
2021/01/21 08:12:51;;;;;;;32.37;16.57;;;2.90;99.90;;;;;;4351581;33;20187;-77
2021/01/21 08:15:19;;;;;;;35.97;17.80;;;3.10;99.90;;;;;;4349739;33;20149;-76
2021/01/21 08:17:50;;;;;;;31.90;16.23;;;3.10;99.90;;;;;;4351163;33;20140;-76
2021/01/21 08:20:25;;;;;;;31.30;17.00;;;3.10;99.90;;;;;;4350768;33;20399;-77
2021/01/21 08:23:01;;;;;;;34.33;17.30;;;3.30;99.90;;;;;;4349848;33;20139;-76
2021/01/21 08:25:31;;;;;;;34.40;17.03;;;3.40;99.90;;;;;;4351113;33;20167;-78
2021/01/21 08:27:58;;;;;;;35.73;17.57;;;3.50;99.90;;;;;;4351386;33;20388;-77
2021/01/21 08:30:27;;;;;;;34.03;16.00;;;3.80;99.90;;;;;;4349404;33;20372;-76
2021/01/21 08:33:05;;;;;;;32.07;16.00;;;3.90;99.90;;;;;;4349407;33;20198;-77
2021/01/21 08:35:37;;;;;;;30.60;15.30;;;4.20;99.90;;;;;;4349771;33;20196;-77
2021/01/21 08:38:27;;;;;;;31.20;15.30;;;4.20;99.90;;;;;;4350490;33;20440;-78
2021/01/21 08:40:55;;;;;;;30.70;15.20;;;4.40;99.90;;;;;;4349779;33;20176;-77
2021/01/21 08:43:23;;;;;;;29.93;15.00;;;4.40;99.90;;;;;;4349640;33;20155;-78
2021/01/21 08:45:52;;;;;;;27.43;13.90;;;4.60;99.90;;;;;;4349199;33;20145;-78
2021/01/21 08:48:34;;;;;;;25.33;13.73;;;4.90;99.90;;;;;;4349582;33;20199;-78
2021/01/21 08:51:02;;;;;;;25.97;13.40;;;5.20;99.90;;;;;;4349101;33;20200;-78
2021/01/21 08:53:30;;;;;;;24.43;12.93;;;5.60;99.90;;;;;;4349152;33;20476;-77
2021/01/21 08:55:58;;;;;;;26.93;13.30;;;5.70;99.90;;;;;;4349650;33;20196;-77
2021/01/21 08:58:33;;;;;;;26.67;13.43;;;5.70;99.90;;;;;;4349806;33;20150;-78
2021/01/21 09:01:06;;;;;;;26.50;12.83;;;5.80;99.90;;;;;;4349259;33;20406;-77
2021/01/21 09:03:45;;;;;;;24.03;12.63;;;5.60;99.90;;;;;;4349406;33;20180;-75
2021/01/21 09:06:13;;;;;;;25.03;12.83;;;5.60;99.90;;;;;;4349706;33;20487;-75
2021/01/21 09:08:51;;;;;;;23.93;11.97;;;5.60;99.90;;;;;;4349248;33;20588;-77
2021/01/21 09:11:38;;;;;;;25.43;13.07;;;5.50;99.90;;;;;;4349428;33;20142;-77
2021/01/21 09:14:07;;;;;;;24.13;12.57;;;5.50;99.90;;;;;;4348141;33;20166;-78
2021/01/21 09:16:40;;;;;;;24.57;12.97;;;5.40;99.90;;;;;;4349437;33;20181;-78
2021/01/21 09:19:09;;;;;;;23.47;12.67;;;5.40;99.90;;;;;;4348641;33;20510;-78
2021/01/21 09:21:37;;;;;;;24.40;13.50;;;5.50;99.90;;;;;;4348765;33;20151;-77
2021/01/21 09:24:12;;;;;;;24.97;12.53;;;5.50;99.90;;;;;;4348790;33;20172;-77
2021/01/21 09:26:39;;;;;;;24.10;12.97;;;5.40;99.90;;;;;;4335545;33;20151;-78
2021/01/21 09:29:06;;;;;;;24.67;12.63;;;5.50;99.90;;;;;;4349740;33;20503;-74
2021/01/21 09:31:33;;;;;;;25.47;13.27;;;5.50;99.90;;;;;;4349231;33;20413;-73
2021/01/21 09:34:01;;;;;;;22.83;12.73;;;5.50;99.90;;;;;;4349591;33;20141;-73
2021/01/21 09:36:30;;;;;;;24.87;12.53;;;5.50;99.90;;;;;;4348681;33;20498;-73
2021/01/21 09:38:57;;;;;;;26.47;13.23;;;5.50;99.90;;;;;;4348348;33;20241;-76
2021/01/21 09:41:25;;;;;;;26.13;13.40;;;5.50;99.90;;;;;;4348625;33;20200;-76
2021/01/21 09:43:52;;;;;;;27.13;13.50;;;5.50;99.90;;;;;;4349517;33;20172;-77
2021/01/21 09:46:21;;;;;;;28.10;13.43;;;5.50;99.90;;;;;;4348119;33;20418;-76
2021/01/21 09:48:48;;;;;;;25.90;14.07;;;5.40;99.90;;;;;;4349167;33;20495;-77
2021/01/21 09:51:16;;;;;;;26.17;13.03;;;5.40;99.90;;;;;;4350669;33;20144;-77
2021/01/21 09:53:43;;;;;;;26.70;14.23;;;5.40;99.90;;;;;;4351548;33;20200;-77
2021/01/21 09:56:09;;;;;;;23.63;13.57;;;5.40;99.90;;;;;;4351545;33;20146;-77
2021/01/21 09:58:38;;;;;;;26.80;13.40;;;5.40;99.90;;;;;;4351730;33;20191;-77
2021/01/21 10:01:05;;;;;;;26.87;13.93;;;5.30;99.90;;;;;;4352088;33;20207;-77
2021/01/21 10:03:47;;;;;;;27.40;14.00;;;5.40;99.90;;;;;;4352028;33;20160;-76
2021/01/21 10:06:14;;;;;;;27.53;14.07;;;5.50;99.90;;;;;;4351982;33;20195;-77
2021/01/21 10:08:41;;;;;;;26.70;13.00;;;5.50;99.90;;;;;;4351907;33;20144;-77
2021/01/21 10:11:08;;;;;;;24.43;13.57;;;5.50;99.90;;;;;;4351371;33;20157;-77
2021/01/21 10:13:35;;;;;;;26.00;13.83;;;5.70;99.90;;;;;;4351956;33;20149;-77
2021/01/21 10:16:02;;;;;;;27.03;13.63;;;5.70;99.80;;;;;;4351527;33;20145;-77
2021/01/21 10:18:30;;;;;;;25.23;13.40;;;5.70;99.40;;;;;;4351184;33;20157;-77
2021/01/21 10:20:57;;;;;;;23.67;13.33;;;5.70;99.80;;;;;;4350984;33;20549;-76
2021/01/21 10:23:24;;;;;;;25.07;13.40;;;5.70;99.50;;;;;;4353188;33;20190;-76
2021/01/21 10:25:51;;;;;;;27.63;13.60;;;5.70;99.40;;;;;;4350978;33;20157;-76
2021/01/21 10:28:18;;;;;;;24.80;13.00;;;5.80;99.30;;;;;;4351171;33;20192;-77
2021/01/21 10:30:50;;;;;;;25.67;13.70;;;5.70;98.70;;;;;;4351067;33;20203;-76
2021/01/21 10:33:17;;;;;;;26.60;13.53;;;5.70;98.80;;;;;;4351577;33;20179;-77
2021/01/21 10:35:45;;;;;;;26.53;13.53;;;5.70;99.10;;;;;;4351055;33;20224;-77
2021/01/21 10:38:11;;;;;;;24.67;12.17;;;5.70;98.70;;;;;;4350811;33;20204;-75
2021/01/21 10:40:41;;;;;;;26.67;13.67;;;5.70;98.90;;;;;;4351525;33;20146;-77
2021/01/21 10:43:08;;;;;;;27.83;14.07;;;5.70;98.80;;;;;;4350918;33;20486;-77
2021/01/21 10:45:35;;;;;;;28.53;13.67;;;5.80;98.40;;;;;;4350682;33;20168;-77
2021/01/21 10:48:02;;;;;;;25.63;13.63;;;5.80;98.50;;;;;;4350171;33;20164;-77
2021/01/21 10:50:30;;;;;;;26.13;13.57;;;5.90;98.40;;;;;;4350822;33;20157;-77
2021/01/21 10:52:57;;;;;;;30.57;14.17;;;5.90;98.10;;;;;;4351253;33;20457;-77
2021/01/21 10:55:24;;;;;;;26.03;14.03;;;6.00;98.00;;;;;;4350868;33;20197;-77
2021/01/21 10:57:53;;;;;;;26.47;13.70;;;6.00;98.10;;;;;;4350769;33;20176;-77
2021/01/21 11:00:21;;;;;;;26.77;13.83;;;6.10;98.40;;;;;;4351224;33;20142;-77
2021/01/21 11:03:13;;;;;;;26.97;14.17;;;6.10;97.40;;;;;;4350537;33;20533;-77
2021/01/21 11:05:44;;;;;;;25.37;12.73;;;6.10;97.10;;;;;;4317815;33;20176;-77
2021/01/21 11:08:12;;;;;;;28.50;13.97;;;6.10;97.20;;;;;;4319612;33;20220;-78
2021/01/21 11:10:40;;;;;;;26.13;13.80;;;6.00;97.50;;;;;;4320000;33;20147;-78
2021/01/21 11:13:08;;;;;;;27.27;13.90;;;6.10;97.00;;;;;;4318401;33;20220;-79
2021/01/21 11:15:35;;;;;;;24.80;13.67;;;6.20;97.10;;;;;;4319566;33;20160;-81
2021/01/21 11:18:08;;;;;;;24.40;13.37;;;6.20;96.70;;;;;;4319258;33;20154;-82
2021/01/21 11:20:35;;;;;;;27.37;14.17;;;6.20;96.80;;;;;;4318951;33;20156;-82
2021/01/21 11:23:03;;;;;;;26.30;13.90;;;6.30;96.50;;;;;;4319273;33;20213;-81
2021/01/21 11:25:30;;;;;;;26.90;14.00;;;6.30;96.40;;;;;;4318672;33;20151;-81
2021/01/21 11:28:05;;;;;;;27.37;14.20;;;6.40;96.10;;;;;;4318681;33;20210;-80
2021/01/21 11:30:33;;;;;;;25.23;13.33;;;6.50;96.10;;;;;;4319050;33;20159;-79
2021/01/21 11:33:00;;;;;;;27.77;13.73;;;6.40;96.00;;;;;;4319109;33;20448;-80
2021/01/21 11:35:29;;;;;;;29.00;14.20;;;6.50;96.40;;;;;;4318996;33;20152;-80
2021/01/21 11:37:56;;;;;;;30.27;14.47;;;6.60;96.10;;;;;;4318584;33;20153;-78
2021/01/21 11:40:24;;;;;;;24.33;13.43;;;6.50;95.60;;;;;;4318964;33;20478;-78
2021/01/21 11:42:51;;;;;;;27.77;14.03;;;6.50;95.90;;;;;;4335606;33;20183;-78
2021/01/21 11:45:18;;;;;;;27.30;13.93;;;6.60;95.70;;;;;;4350013;33;20156;-78
2021/01/21 11:47:46;;;;;;;27.73;14.33;;;6.80;95.50;;;;;;4349899;33;20154;-78
2021/01/21 11:50:23;;;;;;;26.03;13.63;;;6.80;94.90;;;;;;4350470;33;20187;-78
2021/01/21 11:52:50;;;;;;;26.40;14.67;;;7.10;94.70;;;;;;4350595;33;20193;-78
2021/01/21 11:55:21;;;;;;;26.63;13.77;;;7.70;94.20;;;;;;4349979;33;20181;-78
2021/01/21 12:01:18;;;;;;;27.03;14.17;;;8.40;90.90;;;;;;4350089;33;20201;-78
2021/01/21 12:03:48;;;;;;;26.07;13.73;;;9.20;88.70;;;;;;4351912;33;20152;-78
2021/01/21 12:06:15;;;;;;;28.30;13.93;;;10.00;85.80;;;;;;4350008;33;20173;-78
2021/01/21 12:08:43;;;;;;;27.30;14.37;;;10.80;81.40;;;;;;4350562;33;20163;-78
2021/01/21 12:11:09;;;;;;;25.60;14.23;;;10.90;78.60;;;;;;4350622;33;20540;-79
2021/01/21 12:13:41;;;;;;;26.13;14.33;;;11.30;77.10;;;;;;4350268;33;20462;-78
2021/01/21 12:16:08;;;;;;;26.63;14.60;;;11.80;75.00;;;;;;4349714;33;20160;-80
2021/01/21 12:18:36;;;;;;;27.83;14.97;;;11.90;72.30;;;;;;4349528;33;20191;-78
2021/01/21 12:21:34;;;;;;;26.37;14.37;;;11.10;72.80;;;;;;4331618;33;20206;-78
2021/01/21 12:28:13;;;;;;;27.87;14.90;;;10.80;77.00;;;;;;4301687;33;20298;-74
2021/01/21 12:30:28;;;;;;;27.17;14.80;;;10.30;78.20;;;;;;4345817;33;20203;-74
2021/01/21 12:33:02;;;;;;;27.00;14.63;;;9.70;79.30;;;;;;4350265;33;20475;-72
2021/01/21 12:35:32;;;;;;;25.17;13.90;;;9.30;81.90;;;;;;4349958;33;20375;-73
2021/01/21 12:38:06;;;;;;;28.23;14.60;;;9.10;84.10;;;;;;4349423;33;20161;-74
2021/01/21 12:40:33;;;;;;;25.93;14.43;;;9.00;84.00;;;;;;4349753;33;20152;-74
2021/01/21 12:43:00;;;;;;;27.33;14.37;;;8.60;84.80;;;;;;4349267;33;20166;-75
2021/01/21 12:45:28;;;;;;;28.33;14.03;;;8.50;85.70;;;;;;4349365;33;20168;-75
2021/01/21 12:47:55;;;;;;;29.07;15.10;;;8.40;86.90;;;;;;4350560;33;20184;-74
2021/01/21 12:50:27;;;;;;;25.77;13.97;;;8.50;86.60;;;;;;4349580;33;20465;-74
2021/01/21 12:53:10;;;;;;;24.83;13.87;;;8.30;86.90;;;;;;4349204;33;20156;-75
2021/01/21 12:55:37;;;;;;;24.23;13.37;;;8.20;88.30;;;;;;4349860;33;20140;-74
2021/01/21 12:58:29;;;;;;;24.53;13.60;;;8.10;88.70;;;;;;4350910;33;20170;-75
2021/01/21 13:01:10;;;;;;;26.77;14.40;;;8.00;89.30;;;;;;4350086;33;20171;-76